createdAt,value
2017-12-04T00:00:46.704Z,15.35
2017-12-04T00:03:16.406Z,15.38
2017-12-04T00:05:43.973Z,16.75
2017-12-04T00:08:11.588Z,14.10
2017-12-04T00:10:39.429Z,13.73
2017-12-04T00:13:07.013Z,14.85
2017-12-04T00:15:34.702Z,13.55
2017-12-04T00:18:02.321Z,13.60
2017-12-04T00:20:30.109Z,14.98
2017-12-04T00:22:57.723Z,12.50
2017-12-04T00:25:25.467Z,16.43
2017-12-04T00:27:53.253Z,15.13
2017-12-04T00:30:20.881Z,14.25
2017-12-04T00:32:48.822Z,12.63
2017-12-04T00:35:16.616Z,12.10
2017-12-04T00:37:44.498Z,12.35
2017-12-04T00:40:12.357Z,12.35
2017-12-04T00:42:39.931Z,14.52
2017-12-04T00:45:07.709Z,13.30
2017-12-04T00:47:35.463Z,13.73
2017-12-04T00:50:03.040Z,13.88
2017-12-04T00:52:30.642Z,15.88
2017-12-04T00:54:58.198Z,14.20
2017-12-04T00:57:26.021Z,16.70
2017-12-04T00:59:53.624Z,15.88
2017-12-04T01:02:21.454Z,15.77
2017-12-04T01:04:51.148Z,12.93
2017-12-04T01:07:24.263Z,15.65
2017-12-04T01:09:52.255Z,12.40
2017-12-04T01:12:19.839Z,15.80
2017-12-04T01:14:47.446Z,17.58
2017-12-04T01:17:15.276Z,20.80
2017-12-04T01:19:42.832Z,19.75
2017-12-04T01:22:10.694Z,20.00
2017-12-04T01:24:38.479Z,22.13
2017-12-04T01:27:06.252Z,20.05
2017-12-04T01:29:33.850Z,26.48
2017-12-04T01:32:01.454Z,41.63
2017-12-04T01:34:29.012Z,38.83
2017-12-04T01:36:56.585Z,29.60
2017-12-04T01:39:24.218Z,29.63
2017-12-04T01:41:51.770Z,31.77
2017-12-04T01:44:19.314Z,30.55
2017-12-04T01:46:46.901Z,27.00
2017-12-04T01:49:14.576Z,25.90
2017-12-04T01:51:42.197Z,29.23
2017-12-04T01:54:09.826Z,24.48
2017-12-04T01:56:37.461Z,26.95
2017-12-04T01:59:05.107Z,30.48
2017-12-04T02:01:32.701Z,26.73
2017-12-04T02:04:00.287Z,23.40
2017-12-04T02:06:27.875Z,24.75
2017-12-04T02:08:55.872Z,26.40
2017-12-04T02:11:23.474Z,25.75
2017-12-04T02:13:51.033Z,24.58
2017-12-04T02:16:18.634Z,22.87
2017-12-04T02:18:46.496Z,26.62
2017-12-04T02:21:14.280Z,30.88
2017-12-04T02:23:41.905Z,24.67
2017-12-04T02:26:09.505Z,19.75
2017-12-04T02:28:37.302Z,18.25
2017-12-04T02:31:05.436Z,21.00
2017-12-04T02:33:33.081Z,15.65
2017-12-04T02:36:01.409Z,16.45
2017-12-04T02:38:29.054Z,15.77
2017-12-04T02:40:57.104Z,17.48
2017-12-04T02:43:24.731Z,15.48
2017-12-04T02:45:53.176Z,16.98
2017-12-04T02:48:20.965Z,17.67
2017-12-04T02:50:48.805Z,19.85
2017-12-04T02:53:16.470Z,17.37
2017-12-04T02:55:44.060Z,20.85
2017-12-04T02:58:11.918Z,17.00
2017-12-04T03:00:39.525Z,18.65
2017-12-04T03:03:07.384Z,17.45
2017-12-04T03:05:35.839Z,19.37
2017-12-04T03:08:03.955Z,18.55
2017-12-04T03:10:32.154Z,16.27
2017-12-04T03:12:59.706Z,18.83
2017-12-04T03:15:27.321Z,20.50
2017-12-04T03:17:55.135Z,18.33
2017-12-04T03:20:22.755Z,22.58
2017-12-04T03:22:50.402Z,21.77
2017-12-04T03:25:18.218Z,25.25
2017-12-04T03:27:45.865Z,27.40
2017-12-04T03:30:13.463Z,26.92
2017-12-04T03:32:41.317Z,22.20
2017-12-04T03:35:08.930Z,25.10
2017-12-04T03:37:36.607Z,22.80
2017-12-04T03:40:04.227Z,22.92
2017-12-04T03:42:31.857Z,23.15
2017-12-04T03:44:59.463Z,28.45
2017-12-04T03:47:27.129Z,28.20
2017-12-04T03:49:54.747Z,23.83
2017-12-04T03:52:22.528Z,26.08
2017-12-04T03:54:50.293Z,23.55
2017-12-04T03:57:17.825Z,21.48
2017-12-04T03:59:45.413Z,24.85
2017-12-04T04:02:13.021Z,19.65
2017-12-04T04:04:40.779Z,21.08
2017-12-04T04:07:08.743Z,23.35
2017-12-04T04:09:36.328Z,27.77
2017-12-04T04:12:04.083Z,24.45
2017-12-04T04:14:31.881Z,22.80
2017-12-04T04:16:59.467Z,21.15
2017-12-04T04:19:27.086Z,26.85
2017-12-04T04:21:54.685Z,22.05
2017-12-04T04:24:22.289Z,21.00
2017-12-04T04:26:49.859Z,21.08
2017-12-04T04:29:18.229Z,21.85
2017-12-04T04:31:45.981Z,18.52
2017-12-04T04:34:13.800Z,22.58
2017-12-04T04:36:41.613Z,24.60
2017-12-04T04:39:09.423Z,19.30
2017-12-04T04:41:37.003Z,20.20
2017-12-04T04:44:04.569Z,26.55
2017-12-04T04:46:32.413Z,22.77
2017-12-04T04:49:00.199Z,22.45
2017-12-04T04:51:27.782Z,22.37
2017-12-04T04:53:55.616Z,21.20
2017-12-04T04:56:23.205Z,23.15
2017-12-04T04:58:50.999Z,20.83
2017-12-04T05:01:18.613Z,21.33
2017-12-04T05:03:46.160Z,24.20
2017-12-04T05:06:13.926Z,25.20
2017-12-04T05:08:41.551Z,26.37
2017-12-04T05:11:09.126Z,22.70
2017-12-04T05:13:36.947Z,26.10
2017-12-04T05:16:04.598Z,21.98
2017-12-04T05:18:32.431Z,24.65
2017-12-04T05:21:00.209Z,26.87
2017-12-04T05:23:27.813Z,23.12
2017-12-04T05:25:55.362Z,23.15
2017-12-04T05:28:23.238Z,19.98
2017-12-04T05:30:51.054Z,27.25
2017-12-04T05:33:18.605Z,24.87
2017-12-04T05:35:46.609Z,23.80
2017-12-04T05:38:14.214Z,23.17
2017-12-04T05:40:41.781Z,21.67
2017-12-04T05:43:10.290Z,22.52
2017-12-04T05:45:37.911Z,28.42
2017-12-04T05:48:05.507Z,29.65
2017-12-04T05:50:33.293Z,24.10
2017-12-04T05:53:00.885Z,24.33
2017-12-04T05:55:28.581Z,25.10
2017-12-04T05:57:56.369Z,29.40
2017-12-04T06:00:23.966Z,27.20
2017-12-04T06:02:51.470Z,23.95
2017-12-04T06:05:19.084Z,28.45
2017-12-04T06:07:46.651Z,24.90
2017-12-04T06:10:14.212Z,27.00
2017-12-04T06:12:42.106Z,28.30
2017-12-04T06:15:09.687Z,48.15
2017-12-04T06:17:37.432Z,26.15
2017-12-04T06:20:04.997Z,28.77
2017-12-04T06:22:32.562Z,22.95
2017-12-04T06:25:01.289Z,23.30
2017-12-04T06:27:29.138Z,22.35
2017-12-04T06:29:56.737Z,25.55
2017-12-04T06:32:24.305Z,25.23
2017-12-04T06:34:51.860Z,31.05
2017-12-04T06:37:19.425Z,24.50
2017-12-04T06:39:47.212Z,26.10
2017-12-04T06:42:15.642Z,25.55
2017-12-04T06:44:43.160Z,26.67
2017-12-04T06:47:10.710Z,30.37
2017-12-04T06:49:38.222Z,24.02
2017-12-04T06:52:05.787Z,24.70
2017-12-04T06:54:33.352Z,33.50
2017-12-04T06:57:00.918Z,28.17
2017-12-04T06:59:28.890Z,26.90
2017-12-04T07:01:56.573Z,35.15
2017-12-04T07:04:24.348Z,27.08
2017-12-04T07:06:51.963Z,29.70
2017-12-04T07:09:19.534Z,25.98
2017-12-04T07:11:47.113Z,26.25
2017-12-04T07:14:14.877Z,21.20
2017-12-04T07:16:42.653Z,24.95
2017-12-04T07:19:10.421Z,27.85
2017-12-04T07:21:37.961Z,23.75
2017-12-04T07:24:05.830Z,21.25
2017-12-04T07:26:33.413Z,25.52
2017-12-04T07:29:01.154Z,22.90
2017-12-04T07:31:28.769Z,30.17
2017-12-04T07:33:56.362Z,29.35
2017-12-04T07:36:23.993Z,24.55
2017-12-04T07:38:52.352Z,24.20
2017-12-04T07:41:21.025Z,26.48
2017-12-04T07:43:48.617Z,21.70
2017-12-04T07:46:16.619Z,24.70
2017-12-04T07:48:44.187Z,28.60
2017-12-04T07:51:12.685Z,26.77
2017-12-04T07:53:40.322Z,25.12
2017-12-04T07:56:08.091Z,21.70
2017-12-04T07:58:35.656Z,21.42
2017-12-04T08:01:03.244Z,23.60
2017-12-04T08:03:30.822Z,23.48
2017-12-04T08:05:58.632Z,21.37
2017-12-04T08:08:28.872Z,22.45
2017-12-04T08:10:56.623Z,19.77
2017-12-04T08:13:24.398Z,19.00
2017-12-04T08:15:51.971Z,20.73
2017-12-04T08:18:19.545Z,21.70
2017-12-04T08:20:47.214Z,26.90
2017-12-04T08:23:14.779Z,21.83
2017-12-04T08:25:43.373Z,22.08
2017-12-04T08:28:10.979Z,17.92
2017-12-04T08:30:38.572Z,22.67
2017-12-04T08:33:06.342Z,25.77
2017-12-04T08:35:33.870Z,23.08
2017-12-04T08:38:01.415Z,21.73
2017-12-04T08:40:29.202Z,20.90
2017-12-04T08:42:56.758Z,18.52
2017-12-04T08:45:24.425Z,18.90
2017-12-04T08:47:52.216Z,17.33
2017-12-04T08:50:19.968Z,22.42
2017-12-04T08:52:50.910Z,19.85
2017-12-04T08:55:18.561Z,18.52
2017-12-04T08:57:46.158Z,18.10
2017-12-04T09:00:14.529Z,20.23
2017-12-04T09:02:42.390Z,18.23
2017-12-04T09:05:10.166Z,20.17
2017-12-04T09:07:38.158Z,22.10
2017-12-04T09:10:05.754Z,18.00
2017-12-04T09:12:33.681Z,22.40
2017-12-04T09:15:02.229Z,23.10
2017-12-04T09:17:30.018Z,18.15
2017-12-04T09:19:58.678Z,19.52
2017-12-04T09:22:26.995Z,26.12
2017-12-04T09:24:54.872Z,24.67
2017-12-04T09:27:22.671Z,18.55
2017-12-04T09:29:50.243Z,24.83
2017-12-04T09:32:18.058Z,21.85
2017-12-04T09:34:46.551Z,21.23
2017-12-04T09:37:14.450Z,21.52
2017-12-04T09:39:42.271Z,17.33
2017-12-04T09:42:10.027Z,17.20
2017-12-04T09:44:37.817Z,17.27
2017-12-04T09:47:05.578Z,18.50
2017-12-04T09:49:33.412Z,19.70
2017-12-04T09:52:01.183Z,17.73
2017-12-04T09:54:29.002Z,20.15
2017-12-04T09:56:56.611Z,18.80
2017-12-04T09:59:24.152Z,16.87
2017-12-04T10:01:51.975Z,22.58
2017-12-04T10:04:19.781Z,19.87
2017-12-04T10:06:47.571Z,18.80
2017-12-04T10:09:15.459Z,17.40
2017-12-04T10:11:43.125Z,22.80
2017-12-04T10:14:10.713Z,19.62
2017-12-04T10:16:38.494Z,25.27
2017-12-04T10:19:06.251Z,18.08
2017-12-04T10:21:33.837Z,24.80
2017-12-04T10:24:01.386Z,19.77
2017-12-04T10:26:28.978Z,21.15
2017-12-04T10:28:57.943Z,20.70
2017-12-04T10:31:25.542Z,21.87
2017-12-04T10:33:53.104Z,17.95
2017-12-04T10:36:20.672Z,14.45
2017-12-04T10:38:48.297Z,17.73
2017-12-04T10:41:16.073Z,20.42
2017-12-04T10:43:43.878Z,16.02
2017-12-04T10:46:11.842Z,15.18
2017-12-04T10:48:41.314Z,18.10
2017-12-04T10:51:08.830Z,16.75
2017-12-04T10:53:36.866Z,18.55
2017-12-04T10:56:05.106Z,19.27
2017-12-04T10:58:32.890Z,20.37
2017-12-04T11:01:00.462Z,15.82
2017-12-04T11:03:28.043Z,16.45
2017-12-04T11:05:55.619Z,16.58
2017-12-04T11:08:23.327Z,20.50
2017-12-04T11:10:51.108Z,16.52
2017-12-04T11:13:18.693Z,17.37
2017-12-04T11:15:46.318Z,19.92
2017-12-04T11:18:14.080Z,18.23
2017-12-04T11:20:41.866Z,13.93
2017-12-04T11:23:09.454Z,16.27
2017-12-04T11:25:37.806Z,22.08
2017-12-04T11:28:05.581Z,19.87
2017-12-04T11:30:33.403Z,18.23
2017-12-04T11:33:00.942Z,21.25
2017-12-04T11:35:28.771Z,20.40
2017-12-04T11:37:56.366Z,20.30
2017-12-04T11:40:23.953Z,21.35
2017-12-04T11:42:51.752Z,19.20
2017-12-04T11:45:19.357Z,22.17
2017-12-04T11:47:47.191Z,22.65
2017-12-04T11:50:15.269Z,19.45
2017-12-04T11:52:42.929Z,22.08
2017-12-04T11:55:10.802Z,25.52
2017-12-04T11:57:38.375Z,27.23
2017-12-04T12:00:09.166Z,21.55
2017-12-04T12:02:37.286Z,19.48
2017-12-04T12:05:05.140Z,20.65
2017-12-04T12:07:32.925Z,17.48
2017-12-04T12:10:00.488Z,22.55
2017-12-04T12:12:28.089Z,19.77
2017-12-04T12:14:55.775Z,22.37
2017-12-04T12:17:23.542Z,20.85
2017-12-04T12:19:51.107Z,20.10
2017-12-04T12:22:18.698Z,20.92
2017-12-04T12:24:46.251Z,17.48
2017-12-04T12:27:14.024Z,19.12
2017-12-04T12:29:41.653Z,22.62
2017-12-04T12:32:09.237Z,19.67
2017-12-04T12:34:37.042Z,21.23
2017-12-04T12:37:04.612Z,20.60
2017-12-04T12:39:32.346Z,20.73
2017-12-04T12:42:00.097Z,20.08
2017-12-04T12:44:27.693Z,20.30
2017-12-04T12:46:55.272Z,21.60
2017-12-04T12:49:23.078Z,19.95
2017-12-04T12:51:50.861Z,17.95
2017-12-04T12:54:18.434Z,18.20
2017-12-04T12:56:46.402Z,21.58
2017-12-04T12:59:14.219Z,22.87
2017-12-04T13:01:41.885Z,20.88
2017-12-04T13:04:09.477Z,24.98
2017-12-04T13:06:36.994Z,21.62
2017-12-04T13:09:04.650Z,24.73
2017-12-04T13:11:32.376Z,26.02
2017-12-04T13:14:00.792Z,20.65
2017-12-04T13:16:28.411Z,21.60
2017-12-04T13:18:55.992Z,19.30
2017-12-04T13:21:24.581Z,19.42
2017-12-04T13:23:52.195Z,21.33
2017-12-04T13:26:19.980Z,21.42
2017-12-04T13:28:47.638Z,20.45
2017-12-04T13:31:15.622Z,23.05
2017-12-04T13:33:55.225Z,20.48
2017-12-04T13:36:34.870Z,25.08
2017-12-04T13:39:03.393Z,26.48
2017-12-04T13:41:30.960Z,28.50
2017-12-04T13:43:58.535Z,29.30
2017-12-04T13:46:26.181Z,24.98
2017-12-04T13:48:53.945Z,28.73
2017-12-04T13:51:21.507Z,20.67
2017-12-04T13:53:49.029Z,21.77
2017-12-04T13:56:17.479Z,25.33
2017-12-04T13:58:46.884Z,23.27
2017-12-04T14:01:14.606Z,30.50
2017-12-04T14:03:42.504Z,29.87
2017-12-04T14:06:10.083Z,28.05
2017-12-04T14:08:37.699Z,25.55
2017-12-04T14:11:05.454Z,18.95
2017-12-04T14:13:32.973Z,26.77
2017-12-04T14:16:00.971Z,28.38
2017-12-04T14:18:28.748Z,27.00
2017-12-04T14:20:56.562Z,27.50
2017-12-04T14:23:24.395Z,26.37
2017-12-04T14:25:51.962Z,28.17
2017-12-04T14:28:19.743Z,29.67
2017-12-04T14:30:47.388Z,21.85
2017-12-04T14:33:15.182Z,24.95
2017-12-04T14:35:42.790Z,23.45
2017-12-04T14:38:10.325Z,23.52
2017-12-04T14:40:38.332Z,24.25
2017-12-04T14:43:06.129Z,30.55
2017-12-04T14:45:33.732Z,25.85
2017-12-04T14:48:01.492Z,33.00
2017-12-04T14:50:29.279Z,28.70
2017-12-04T14:52:56.862Z,22.73
2017-12-04T14:55:25.193Z,28.40
2017-12-04T14:57:52.842Z,24.67
2017-12-04T15:00:20.401Z,29.10
2017-12-04T15:02:47.970Z,29.73
2017-12-04T15:05:15.554Z,22.27
2017-12-04T15:07:43.357Z,30.25
2017-12-04T15:10:11.161Z,31.90
2017-12-04T15:12:39.550Z,27.60
2017-12-04T15:15:07.351Z,26.75
2017-12-04T15:17:35.022Z,26.08
2017-12-04T15:20:02.641Z,25.55
2017-12-04T15:26:53.614Z,24.75
2017-12-04T15:29:21.359Z,28.75
2017-12-04T15:31:48.929Z,24.87
2017-12-04T15:34:17.303Z,25.40
2017-12-04T15:36:45.076Z,28.90
2017-12-04T15:39:13.219Z,25.48
2017-12-04T15:41:41.011Z,34.65
2017-12-04T15:44:08.569Z,29.95
2017-12-04T15:46:36.181Z,31.65
2017-12-04T15:49:03.750Z,31.87
2017-12-04T15:51:31.666Z,30.12
2017-12-04T15:53:59.885Z,29.02
2017-12-04T15:56:28.340Z,31.37
2017-12-04T15:58:55.907Z,29.75
2017-12-04T16:01:23.492Z,27.80
2017-12-04T16:03:51.105Z,24.83
2017-12-04T16:06:18.854Z,28.75
2017-12-04T16:08:46.624Z,23.95
2017-12-04T16:11:14.398Z,26.85
2017-12-04T16:13:42.046Z,25.55
2017-12-04T16:16:09.642Z,24.90
2017-12-04T16:18:37.174Z,28.62
2017-12-04T16:21:05.036Z,28.55
2017-12-04T16:23:32.667Z,33.35
2017-12-04T16:26:00.293Z,27.10
2017-12-04T16:28:28.159Z,26.45
2017-12-04T16:30:56.205Z,29.50
2017-12-04T16:33:23.858Z,21.98
2017-12-04T16:35:51.622Z,30.70
2017-12-04T16:38:19.741Z,39.08
2017-12-04T16:40:47.355Z,24.17
2017-12-04T16:43:14.957Z,27.62
2017-12-04T16:45:44.315Z,25.05
2017-12-04T16:48:15.262Z,27.50
2017-12-04T16:50:44.018Z,26.27
2017-12-04T16:53:11.666Z,26.10
2017-12-04T16:55:39.913Z,29.10
2017-12-04T16:58:07.459Z,30.27
2017-12-04T17:00:35.914Z,24.75
2017-12-04T17:03:03.902Z,25.50
2017-12-04T17:05:31.442Z,24.40
2017-12-04T17:07:59.030Z,27.77
2017-12-04T17:10:26.805Z,26.20
2017-12-04T17:12:54.426Z,27.00
2017-12-04T17:15:23.042Z,31.60
2017-12-04T17:17:50.854Z,23.92
2017-12-04T17:20:20.094Z,28.92
2017-12-04T17:22:47.799Z,25.10
2017-12-04T17:25:15.369Z,27.05
2017-12-04T17:27:43.150Z,23.77
2017-12-04T17:30:10.770Z,26.10
2017-12-04T17:32:38.329Z,34.15
2017-12-04T17:35:06.077Z,29.10
2017-12-04T17:37:33.765Z,19.70
2017-12-04T17:40:01.527Z,24.10
2017-12-04T17:42:29.325Z,27.20
2017-12-04T17:44:57.426Z,24.27
2017-12-04T17:47:25.047Z,24.00
2017-12-04T17:49:52.818Z,20.80
2017-12-04T17:52:20.448Z,18.73
2017-12-04T17:54:47.990Z,17.98
2017-12-04T17:57:15.714Z,24.30
2017-12-04T17:59:43.342Z,22.70
2017-12-04T18:02:11.202Z,21.92
2017-12-04T18:04:38.732Z,22.13
2017-12-04T18:07:07.190Z,29.50
2017-12-04T18:09:34.960Z,23.15
2017-12-04T18:12:02.782Z,25.00
2017-12-04T18:14:30.639Z,25.42
2017-12-04T18:16:59.476Z,20.62
2017-12-04T18:19:28.986Z,21.50
2017-12-04T18:21:58.532Z,24.12
2017-12-04T18:24:30.351Z,18.45
2017-12-04T18:27:00.871Z,28.45
2017-12-04T18:29:35.433Z,21.75
2017-12-04T18:32:03.414Z,22.83
2017-12-04T18:34:35.231Z,24.73
2017-12-04T18:37:02.838Z,17.67
2017-12-04T18:39:32.232Z,20.48
2017-12-04T18:41:59.883Z,23.50
2017-12-04T18:44:28.281Z,21.00
2017-12-04T18:46:56.021Z,22.95
2017-12-04T18:49:25.778Z,17.05
2017-12-04T18:51:53.505Z,18.62
2017-12-04T18:54:21.218Z,19.35
2017-12-04T18:56:48.867Z,18.60
2017-12-04T18:59:17.204Z,18.70
2017-12-04T19:01:46.686Z,21.75
2017-12-04T19:04:14.393Z,32.08
2017-12-04T19:06:42.430Z,20.45
2017-12-04T19:09:17.699Z,23.20
2017-12-04T19:11:45.874Z,22.62
2017-12-04T19:14:16.345Z,19.02
2017-12-04T19:17:01.469Z,14.63
2017-12-04T19:19:31.340Z,17.75
2017-12-04T19:21:59.815Z,17.40
2017-12-04T19:24:27.629Z,19.83
2017-12-04T19:27:00.711Z,15.95
2017-12-04T19:29:36.651Z,19.05
2017-12-04T19:35:21.881Z,15.65
2017-12-04T19:37:49.594Z,16.45
2017-12-04T19:40:17.323Z,19.75
2017-12-04T19:42:45.048Z,16.55
2017-12-04T19:45:12.807Z,20.25
2017-12-04T19:47:41.995Z,24.83
2017-12-04T19:50:09.620Z,22.62
2017-12-04T19:52:38.212Z,16.02
2017-12-04T19:55:06.034Z,20.48
2017-12-04T19:57:41.465Z,17.60
2017-12-04T20:00:09.974Z,16.80
2017-12-04T20:02:38.496Z,17.77
2017-12-04T20:05:10.484Z,16.02
2017-12-04T20:07:45.533Z,20.77
2017-12-04T20:27:33.557Z,21.85
2017-12-04T20:30:01.253Z,24.60
2017-12-04T20:32:29.178Z,17.45
2017-12-04T20:34:59.220Z,16.20
2017-12-04T20:37:27.562Z,22.77
2017-12-04T20:39:55.472Z,21.02
2017-12-04T20:42:24.206Z,25.37
2017-12-04T20:44:51.950Z,23.67
2017-12-04T20:47:28.019Z,18.15
2017-12-04T20:50:03.532Z,27.13
2017-12-04T20:52:31.424Z,24.10
2017-12-04T20:54:59.088Z,23.02
2017-12-04T20:57:27.969Z,21.00
2017-12-04T20:59:58.290Z,21.60
2017-12-04T21:02:34.469Z,21.92
2017-12-04T21:05:02.873Z,22.23
2017-12-04T21:07:31.335Z,19.92
2017-12-04T21:10:10.947Z,20.83
2017-12-04T21:12:38.616Z,21.90
2017-12-04T21:15:18.106Z,16.85
2017-12-04T21:17:45.949Z,21.08
2017-12-04T21:20:19.878Z,20.77
2017-12-04T21:22:49.138Z,20.33
2017-12-04T21:29:00.786Z,22.92
2017-12-04T21:38:30.798Z,24.70
2017-12-04T21:41:04.778Z,17.70
2017-12-04T21:43:52.234Z,18.87
2017-12-04T21:56:25.938Z,22.60
2017-12-04T21:58:55.196Z,22.40
2017-12-04T22:01:23.512Z,22.80
2017-12-04T22:06:24.042Z,30.02
2017-12-04T22:11:26.940Z,23.08
2017-12-04T22:13:54.692Z,20.48
2017-12-04T22:16:22.346Z,25.62
2017-12-04T22:18:49.973Z,19.27
2017-12-04T22:21:18.359Z,21.17
2017-12-04T22:23:45.942Z,25.58
2017-12-04T22:26:40.573Z,23.25
